createdAt,value
2023-01-25T00:02:17.197Z,102378.19
2023-01-25T00:04:43.972Z,102374.41
2023-01-25T00:07:10.940Z,102364.34
2023-01-25T00:09:37.583Z,102369.38
2023-01-25T00:12:04.367Z,102366.13
2023-01-25T00:14:31.048Z,102365.13
2023-01-25T00:16:57.751Z,102356.22
2023-01-25T00:19:24.476Z,102353.50
2023-01-25T00:21:51.191Z,102352.09
2023-01-25T00:24:25.994Z,102346.16
2023-01-25T00:26:52.674Z,102342.66
2023-01-25T00:29:19.545Z,102342.53
2023-01-25T00:31:49.388Z,102337.56
2023-01-25T00:34:25.235Z,102336.31
2023-01-25T00:36:51.841Z,102336.31
2023-01-25T00:39:18.455Z,102326.22
2023-01-25T00:41:52.708Z,102327.03
2023-01-25T00:44:19.563Z,102323.94
2023-01-25T00:46:46.819Z,102317.25
2023-01-25T00:49:22.321Z,102318.06
2023-01-25T00:51:50.031Z,102323.28
2023-01-25T00:54:17.173Z,102319.72
2023-01-25T00:56:45.520Z,102322.50
2023-01-25T00:59:14.741Z,102323.13
2023-01-25T01:01:42.286Z,102323.88
2023-01-25T01:04:09.058Z,102320.41
2023-01-25T01:06:36.577Z,102325.59
2023-01-25T01:09:03.715Z,102322.34
2023-01-25T01:11:31.736Z,102324.88
2023-01-25T01:13:59.423Z,102322.19
2023-01-25T01:16:26.733Z,102320.63
2023-01-25T01:18:53.561Z,102325.28
2023-01-25T01:21:20.810Z,102324.25
2023-01-25T01:23:49.982Z,102324.41
2023-01-25T01:26:21.001Z,102321.00
2023-01-25T01:28:48.191Z,102314.75
2023-01-25T01:31:21.190Z,102314.59
2023-01-25T01:34:02.049Z,102315.59
2023-01-25T01:36:30.364Z,102321.56
2023-01-25T01:38:59.270Z,102319.78
2023-01-25T01:41:26.048Z,102322.25
2023-01-25T01:43:53.239Z,102324.19
2023-01-25T01:46:19.887Z,102324.25
2023-01-25T01:49:03.684Z,102325.28
2023-01-25T01:51:47.791Z,102318.16
2023-01-25T01:54:25.674Z,102316.53
2023-01-25T01:57:19.492Z,102312.66
2023-01-25T01:59:54.834Z,102318.84
2023-01-25T02:02:24.098Z,102313.69
2023-01-25T02:04:51.044Z,102310.94
2023-01-25T02:07:25.630Z,102316.22
2023-01-25T02:09:52.416Z,102318.94
2023-01-25T02:12:21.201Z,102311.72
2023-01-25T02:14:52.398Z,102309.88
2023-01-25T02:17:24.869Z,102310.75
2023-01-25T02:20:01.087Z,102311.81
2023-01-25T02:22:36.641Z,102304.63
2023-01-25T02:25:13.558Z,102307.94
2023-01-25T02:27:54.865Z,102298.34
2023-01-25T02:30:22.005Z,102308.09
2023-01-25T02:32:50.879Z,102302.75
2023-01-25T02:35:39.361Z,102303.53
2023-01-25T02:38:06.761Z,102300.53
2023-01-25T02:40:38.648Z,102303.47
2023-01-25T02:43:05.302Z,102292.47
2023-01-25T02:45:32.363Z,102296.97
2023-01-25T02:47:58.980Z,102292.47
2023-01-25T02:50:25.683Z,102301.19
2023-01-25T02:52:52.367Z,102298.50
2023-01-25T02:55:26.662Z,102300.75
2023-01-25T02:57:53.437Z,102294.06
2023-01-25T03:00:20.842Z,102286.91
2023-01-25T03:02:47.734Z,102279.94
2023-01-25T03:05:16.822Z,102275.13
2023-01-25T03:07:43.493Z,102267.75
2023-01-25T03:10:10.734Z,102269.47
2023-01-25T03:12:37.507Z,102266.69
2023-01-25T03:15:10.202Z,102268.41
2023-01-25T03:17:37.024Z,102267.09
2023-01-25T03:20:03.932Z,102266.69
2023-01-25T03:22:32.483Z,102267.47
2023-01-25T03:24:59.791Z,102261.59
2023-01-25T03:27:26.677Z,102264.16
2023-01-25T03:30:01.373Z,102253.47
2023-01-25T03:32:31.771Z,102253.78
2023-01-25T03:35:06.720Z,102244.34
2023-01-25T03:37:34.423Z,102241.16
2023-01-25T03:40:01.257Z,102247.19
2023-01-25T03:42:28.015Z,102251.47
2023-01-25T03:44:57.356Z,102255.09
2023-01-25T03:47:24.018Z,102255.03
2023-01-25T03:49:51.511Z,102249.91
2023-01-25T03:52:19.093Z,102247.34
2023-01-25T03:54:46.879Z,102253.16
2023-01-25T03:57:13.946Z,102254.09
2023-01-25T04:00:14.120Z,102252.06
2023-01-25T04:02:47.514Z,102247.97
2023-01-25T04:05:18.105Z,102250.59
2023-01-25T04:07:45.129Z,102233.41
2023-01-25T04:10:12.973Z,102240.00
2023-01-25T04:12:43.676Z,102248.72
2023-01-25T04:15:10.950Z,102243.72
2023-01-25T04:17:39.170Z,102246.81
2023-01-25T04:20:20.022Z,102247.97
2023-01-25T04:22:46.688Z,102255.03
2023-01-25T04:25:15.445Z,102250.59
2023-01-25T04:27:47.697Z,102250.53
2023-01-25T04:30:16.269Z,102258.59
2023-01-25T04:32:44.811Z,102258.44
2023-01-25T04:35:28.535Z,102257.72
2023-01-25T04:37:56.210Z,102254.53
2023-01-25T04:40:25.550Z,102255.22
2023-01-25T04:42:52.236Z,102255.47
2023-01-25T04:45:19.301Z,102262.81
2023-01-25T04:47:46.015Z,102261.06
2023-01-25T04:50:12.738Z,102249.13
2023-01-25T04:52:39.430Z,102249.44
2023-01-25T04:55:09.267Z,102259.88
2023-01-25T04:57:40.881Z,102249.19
2023-01-25T05:00:09.808Z,102260.56
2023-01-25T05:02:40.815Z,102263.22
2023-01-25T05:05:08.499Z,102264.38
2023-01-25T05:07:35.497Z,102263.44
2023-01-25T05:10:03.575Z,102263.53
2023-01-25T05:12:30.528Z,102264.19
2023-01-25T05:15:02.002Z,102262.50
2023-01-25T05:17:28.884Z,102265.22
2023-01-25T05:19:55.627Z,102270.41
2023-01-25T05:22:23.388Z,102252.66
2023-01-25T05:24:52.689Z,102265.34
2023-01-25T05:27:20.616Z,102254.53
2023-01-25T05:29:53.028Z,102262.28
2023-01-25T05:32:23.461Z,102257.25
2023-01-25T05:34:50.375Z,102264.91
2023-01-25T05:37:19.152Z,102262.19
2023-01-25T05:39:47.711Z,102263.66
2023-01-25T05:42:19.306Z,102262.25
2023-01-25T05:44:52.025Z,102249.00
2023-01-25T05:47:19.537Z,102262.66
2023-01-25T05:49:46.620Z,102260.47
2023-01-25T05:52:27.556Z,102268.31
2023-01-25T05:54:56.694Z,102263.50
2023-01-25T05:57:24.586Z,102256.09
2023-01-25T05:59:53.926Z,102261.25
2023-01-25T06:02:20.761Z,102259.66
2023-01-25T06:04:48.388Z,102252.53
2023-01-25T06:07:15.502Z,102244.25
2023-01-25T06:09:42.701Z,102241.78
2023-01-25T06:12:10.802Z,102242.38
2023-01-25T06:14:37.452Z,102246.16
2023-01-25T06:17:04.288Z,102241.06
2023-01-25T06:19:49.352Z,102242.75
2023-01-25T06:22:36.213Z,102248.03
2023-01-25T06:25:02.915Z,102236.50
2023-01-25T06:27:29.740Z,102240.69
2023-01-25T06:29:56.453Z,102246.59
2023-01-25T06:32:25.962Z,102242.22
2023-01-25T06:34:53.222Z,102248.31
2023-01-25T06:37:27.134Z,102247.38
2023-01-25T06:39:53.912Z,102251.47
2023-01-25T06:42:20.560Z,102252.66
2023-01-25T06:44:47.367Z,102258.16
2023-01-25T06:47:14.097Z,102252.13
2023-01-25T06:49:48.206Z,102248.41
2023-01-25T06:52:14.841Z,102238.81
2023-01-25T06:54:41.479Z,102241.44
2023-01-25T06:57:11.840Z,102245.78
2023-01-25T06:59:38.535Z,102257.75
2023-01-25T07:02:07.442Z,102252.91
2023-01-25T07:04:34.389Z,102261.63
2023-01-25T07:07:01.042Z,102258.78
2023-01-25T07:09:27.726Z,102256.38
2023-01-25T07:11:54.385Z,102249.81
2023-01-25T07:14:21.041Z,102255.75
2023-01-25T07:16:47.656Z,102252.91
2023-01-25T07:19:21.478Z,102252.66
2023-01-25T07:21:51.403Z,102251.88
2023-01-25T07:24:19.856Z,102245.00
2023-01-25T07:26:47.647Z,102255.97
2023-01-25T07:29:18.865Z,102250.56
2023-01-25T07:31:47.830Z,102247.53
2023-01-25T07:34:14.542Z,102250.19
2023-01-25T07:36:41.585Z,102258.06
2023-01-25T07:39:10.412Z,102258.16
2023-01-25T07:41:37.431Z,102258.84
2023-01-25T07:44:04.476Z,102257.41
2023-01-25T07:46:49.056Z,102267.81
2023-01-25T07:49:15.843Z,102261.03
2023-01-25T07:51:42.555Z,102260.88
2023-01-25T07:54:13.903Z,102267.66
2023-01-25T07:56:43.333Z,102262.19
2023-01-25T07:59:10.441Z,102272.09
2023-01-25T08:01:37.529Z,102268.00
2023-01-25T08:04:05.498Z,102269.03
2023-01-25T08:06:35.805Z,102273.19
2023-01-25T08:09:09.699Z,102270.22
2023-01-25T08:11:36.469Z,102275.34
2023-01-25T08:14:03.284Z,102280.69
2023-01-25T08:16:34.353Z,102279.28
2023-01-25T08:19:02.089Z,102286.34
2023-01-25T08:21:32.197Z,102293.53
2023-01-25T08:24:00.641Z,102284.38
2023-01-25T08:26:33.226Z,102284.03
2023-01-25T08:29:00.044Z,102274.53
2023-01-25T08:31:31.921Z,102284.31
2023-01-25T08:33:59.020Z,102271.94
2023-01-25T08:36:28.953Z,102286.94
2023-01-25T08:38:57.941Z,102287.88
2023-01-25T08:41:25.444Z,102290.06
2023-01-25T08:43:54.058Z,102284.63
2023-01-25T08:46:22.003Z,102294.06
2023-01-25T08:48:49.021Z,102285.09
2023-01-25T08:51:17.008Z,102289.38
2023-01-25T08:53:43.642Z,102286.78
2023-01-25T08:56:15.197Z,102284.56
2023-01-25T08:58:45.762Z,102284.13
2023-01-25T09:01:14.888Z,102281.56
2023-01-25T09:03:44.580Z,102279.47
2023-01-25T09:06:12.025Z,102276.75
2023-01-25T09:08:40.112Z,102286.19
2023-01-25T09:11:12.378Z,102282.88
2023-01-25T09:13:39.059Z,102280.09
2023-01-25T09:16:08.137Z,102277.34
2023-01-25T09:18:36.768Z,102268.09
2023-01-25T09:21:13.519Z,102269.31
2023-01-25T09:23:50.954Z,102271.66
2023-01-25T09:26:24.723Z,102273.09
2023-01-25T09:28:52.679Z,102278.97
2023-01-25T09:31:22.795Z,102277.97
2023-01-25T09:34:08.715Z,102276.44
2023-01-25T09:36:36.228Z,102274.25
2023-01-25T09:39:02.959Z,102285.34
2023-01-25T09:42:14.391Z,102278.22
2023-01-25T09:44:44.968Z,102288.06
2023-01-25T09:47:27.591Z,102296.09
2023-01-25T09:50:15.713Z,102287.47
2023-01-25T09:52:57.473Z,102275.63
2023-01-25T09:55:26.170Z,102276.78
2023-01-25T09:57:54.152Z,102280.00
2023-01-25T10:00:24.551Z,102274.72
2023-01-25T10:03:45.614Z,102275.56
2023-01-25T10:06:21.764Z,102279.94
2023-01-25T10:08:53.479Z,102276.63
2023-01-25T10:11:21.847Z,102273.63
2023-01-25T10:13:48.897Z,102281.88
2023-01-25T10:16:26.381Z,102274.88
2023-01-25T10:18:56.865Z,102279.38
2023-01-25T10:21:28.197Z,102275.41
2023-01-25T10:24:06.642Z,102268.22
2023-01-25T10:26:35.839Z,102266.06
2023-01-25T10:29:13.189Z,102265.41
2023-01-25T10:31:53.304Z,102260.97
2023-01-25T10:34:20.293Z,102265.47
2023-01-25T10:36:54.825Z,102258.94
2023-01-25T10:39:21.976Z,102254.69
2023-01-25T10:41:51.808Z,102255.53
2023-01-25T10:44:27.975Z,102246.03
2023-01-25T10:47:01.854Z,102250.31
2023-01-25T10:49:42.248Z,102241.41
2023-01-25T10:52:19.123Z,102226.97
2023-01-25T10:54:46.842Z,102225.25
2023-01-25T10:57:21.424Z,102218.88
2023-01-25T10:59:52.879Z,102219.47
2023-01-25T11:02:40.268Z,102208.34
2023-01-25T11:05:18.474Z,102205.63
2023-01-25T11:07:49.005Z,102197.63
2023-01-25T11:10:27.814Z,102196.06
2023-01-25T11:13:16.660Z,102189.94
2023-01-25T11:15:45.442Z,102183.75
2023-01-25T11:18:28.627Z,102185.59
2023-01-25T11:21:18.788Z,102182.28
2023-01-25T11:24:13.216Z,102172.63
2023-01-25T11:26:40.825Z,102172.19
2023-01-25T11:29:21.883Z,102169.38
2023-01-25T11:31:51.982Z,102163.03
2023-01-25T11:34:21.326Z,102146.84
2023-01-25T11:37:06.939Z,102140.59
2023-01-25T11:39:59.220Z,102133.72
2023-01-25T11:42:31.996Z,102126.31
2023-01-25T11:45:28.436Z,102125.38
2023-01-25T11:48:02.910Z,102120.03
2023-01-25T11:50:39.375Z,102109.50
2023-01-25T11:53:21.276Z,102109.25
2023-01-25T11:56:06.853Z,102094.72
2023-01-25T11:58:39.681Z,102085.91
2023-01-25T12:01:25.068Z,102084.09
2023-01-25T12:03:51.753Z,102081.38
2023-01-25T12:06:58.683Z,102079.69
2023-01-25T12:09:28.874Z,102071.09
2023-01-25T12:12:08.696Z,102063.13
2023-01-25T12:14:44.293Z,102070.75
2023-01-25T12:17:52.409Z,102054.53
2023-01-25T12:20:40.457Z,102052.78
2023-01-25T12:23:19.203Z,102047.41
2023-01-25T12:26:00.985Z,102043.34
2023-01-25T12:28:32.644Z,102035.56
2023-01-25T12:31:10.938Z,102032.13
2023-01-25T12:33:45.036Z,102009.91
2023-01-25T12:36:24.880Z,102008.75
2023-01-25T12:39:03.895Z,101999.94
2023-01-25T12:41:42.064Z,101997.97
2023-01-25T12:44:11.719Z,101993.66
2023-01-25T12:46:48.370Z,101990.75
2023-01-25T12:49:31.605Z,101978.22
2023-01-25T12:52:01.237Z,101972.88
2023-01-25T12:54:38.077Z,101964.22
2023-01-25T12:57:23.180Z,101968.50
2023-01-25T12:59:52.428Z,101950.66
2023-01-25T13:02:28.382Z,101942.41
2023-01-25T13:05:32.420Z,101940.16
2023-01-25T13:08:31.772Z,101950.06
2023-01-25T13:11:21.413Z,101932.34
2023-01-25T13:13:48.117Z,101928.31
2023-01-25T13:16:32.435Z,101925.94
2023-01-25T13:18:59.605Z,101924.06
2023-01-25T13:21:41.618Z,101915.91
2023-01-25T13:24:22.009Z,101922.06
2023-01-25T13:26:49.945Z,101909.22
2023-01-25T13:29:30.184Z,101901.44
2023-01-25T13:31:59.024Z,101897.19
2023-01-25T13:34:35.711Z,101896.81
2023-01-25T13:37:05.198Z,101904.69
2023-01-25T13:39:31.823Z,101894.25
2023-01-25T13:42:01.886Z,101887.75
2023-01-25T13:44:34.375Z,101878.66
2023-01-25T13:47:06.642Z,101876.28
2023-01-25T13:49:41.225Z,101885.63
2023-01-25T13:52:07.838Z,101883.00
2023-01-25T13:54:43.164Z,101878.00
2023-01-25T13:57:15.031Z,101876.97
2023-01-25T13:59:41.786Z,101862.84
2023-01-25T14:02:23.677Z,101859.72
2023-01-25T14:04:51.545Z,101864.72
2023-01-25T14:07:20.604Z,101870.13
2023-01-25T14:09:50.109Z,101867.34
2023-01-25T14:12:30.073Z,101865.03
2023-01-25T14:14:58.124Z,101871.59
2023-01-25T14:17:24.961Z,101859.38
2023-01-25T14:19:55.362Z,101867.28
2023-01-25T14:22:27.925Z,101865.16
2023-01-25T14:25:11.107Z,101863.53
2023-01-25T14:27:43.039Z,101864.47
2023-01-25T14:30:19.779Z,101868.16
2023-01-25T14:32:46.636Z,101870.63
2023-01-25T14:35:42.756Z,101871.88
2023-01-25T14:38:25.392Z,101874.47
2023-01-25T14:41:00.850Z,101873.34
2023-01-25T14:43:29.894Z,101881.84
2023-01-25T14:45:57.327Z,101875.75
2023-01-25T14:48:38.628Z,101871.38
2023-01-25T14:51:10.812Z,101873.19
2023-01-25T14:53:40.063Z,101877.63
2023-01-25T14:56:26.663Z,101874.75
2023-01-25T14:58:59.429Z,101868.28
2023-01-25T15:01:37.465Z,101859.47
2023-01-25T15:04:04.992Z,101849.41
2023-01-25T15:06:31.686Z,101850.63
2023-01-25T15:08:58.389Z,101851.84
2023-01-25T15:11:35.520Z,101846.59
2023-01-25T15:14:02.966Z,101838.94
2023-01-25T15:16:33.778Z,101842.63
2023-01-25T15:19:00.634Z,101848.69
2023-01-25T15:21:33.994Z,101857.53
2023-01-25T15:24:06.553Z,101853.28
2023-01-25T15:26:34.828Z,101855.47
2023-01-25T15:29:27.087Z,101839.22
2023-01-25T15:31:55.730Z,101841.56
2023-01-25T15:34:26.283Z,101829.06
2023-01-25T15:36:55.473Z,101835.97
2023-01-25T15:39:27.004Z,101833.28
2023-01-25T15:41:53.960Z,101838.53
2023-01-25T15:44:23.875Z,101831.41
2023-01-25T15:46:53.991Z,101837.75
2023-01-25T15:49:26.977Z,101833.09
2023-01-25T15:51:54.728Z,101826.31
2023-01-25T15:54:24.603Z,101826.16
2023-01-25T15:56:55.181Z,101830.38
2023-01-25T15:59:22.331Z,101812.16
2023-01-25T16:01:51.183Z,101815.63
2023-01-25T16:04:20.147Z,101820.28
2023-01-25T16:06:51.635Z,101814.53
2023-01-25T16:09:31.306Z,101807.00
2023-01-25T16:12:00.220Z,101809.34
2023-01-25T16:14:30.398Z,101807.50
2023-01-25T16:17:06.237Z,101802.56
2023-01-25T16:19:33.699Z,101794.28
2023-01-25T16:22:03.160Z,101801.91
2023-01-25T16:24:29.851Z,101797.81
2023-01-25T16:26:58.207Z,101793.50
2023-01-25T16:29:25.644Z,101792.91
2023-01-25T16:32:01.558Z,101798.25
2023-01-25T16:34:28.392Z,101804.34
2023-01-25T16:36:55.198Z,101797.16
2023-01-25T16:39:28.140Z,101796.13
2023-01-25T16:41:56.002Z,101786.41
2023-01-25T16:44:22.716Z,101782.66
2023-01-25T16:46:59.405Z,101785.56
2023-01-25T16:49:27.261Z,101786.16
2023-01-25T16:51:54.699Z,101784.53
2023-01-25T16:54:33.874Z,101775.06
2023-01-25T16:57:08.626Z,101776.81
2023-01-25T16:59:45.673Z,101774.13
2023-01-25T17:02:13.028Z,101769.38
2023-01-25T17:04:39.722Z,101761.84
2023-01-25T17:07:10.582Z,101763.63
2023-01-25T17:09:37.976Z,101759.13
2023-01-25T17:12:04.860Z,101761.34
2023-01-25T17:14:31.558Z,101760.81
2023-01-25T17:16:58.307Z,101765.09
2023-01-25T17:19:25.123Z,101754.38
2023-01-25T17:21:51.769Z,101758.03
2023-01-25T17:24:21.630Z,101753.44
2023-01-25T17:26:48.710Z,101756.28
2023-01-25T17:29:15.336Z,101745.81
2023-01-25T17:31:42.303Z,101743.88
2023-01-25T17:34:13.225Z,101746.50
2023-01-25T17:36:40.226Z,101740.69
2023-01-25T17:39:07.426Z,101741.97
2023-01-25T17:41:34.587Z,101740.44
2023-01-25T17:44:02.221Z,101751.03
2023-01-25T17:46:35.052Z,101756.88
2023-01-25T17:49:03.135Z,101759.63
2023-01-25T17:51:31.452Z,101764.94
2023-01-25T17:53:58.422Z,101768.06
2023-01-25T17:56:25.703Z,101769.41
2023-01-25T17:58:52.780Z,101761.47
2023-01-25T18:01:24.934Z,101767.53
2023-01-25T18:03:53.274Z,101762.16
2023-01-25T18:06:22.215Z,101751.75
2023-01-25T18:08:50.011Z,101746.41
2023-01-25T18:11:19.011Z,101740.41
2023-01-25T18:13:50.577Z,101730.00
2023-01-25T18:16:18.574Z,101723.44
2023-01-25T18:18:45.979Z,101721.91
2023-01-25T18:21:15.939Z,101718.56
2023-01-25T18:23:46.670Z,101716.31
2023-01-25T18:26:18.434Z,101717.75
2023-01-25T18:28:48.100Z,101712.06
2023-01-25T18:31:18.740Z,101703.44
2023-01-25T18:33:45.524Z,101702.59
2023-01-25T18:36:21.243Z,101691.19
2023-01-25T18:38:48.230Z,101691.63
2023-01-25T18:41:14.830Z,101687.94
2023-01-25T18:43:41.579Z,101691.75
2023-01-25T18:46:08.957Z,101689.72
2023-01-25T18:48:36.305Z,101687.28
2023-01-25T18:51:06.351Z,101663.06
2023-01-25T18:53:34.611Z,101661.44
2023-01-25T18:56:07.929Z,101651.09
2023-01-25T18:58:36.281Z,101649.41
2023-01-25T19:01:20.529Z,101647.22
2023-01-25T19:03:49.072Z,101655.84
2023-01-25T19:06:16.458Z,101637.81
2023-01-25T19:08:44.599Z,101641.13
2023-01-25T19:11:13.623Z,101630.22
2023-01-25T19:13:41.381Z,101629.13
2023-01-25T19:16:11.457Z,101614.94
2023-01-25T19:18:57.812Z,101613.56
2023-01-25T19:21:26.196Z,101611.94
2023-01-25T19:23:55.995Z,101608.56
2023-01-25T19:26:24.553Z,101601.94
2023-01-25T19:28:57.450Z,101603.47
2023-01-25T19:31:26.266Z,101597.13
2023-01-25T19:33:58.314Z,101590.56
2023-01-25T19:36:28.146Z,101582.44
2023-01-25T19:38:55.274Z,101579.81
2023-01-25T19:41:24.139Z,101581.16
2023-01-25T19:44:11.573Z,101580.56
2023-01-25T19:46:39.661Z,101577.09
2023-01-25T19:49:11.057Z,101572.53
2023-01-25T19:51:41.517Z,101562.06
2023-01-25T19:54:15.828Z,101561.13
2023-01-25T19:56:45.105Z,101560.63
2023-01-25T19:59:14.620Z,101553.94
2023-01-25T20:01:44.078Z,101549.94
2023-01-25T20:04:16.939Z,101546.09
2023-01-25T20:06:43.771Z,101548.84
2023-01-25T20:09:14.693Z,101545.47
2023-01-25T20:11:41.813Z,101544.63
2023-01-25T20:14:09.747Z,101533.72
2023-01-25T20:16:36.510Z,101525.84
2023-01-25T20:19:03.939Z,101522.94
2023-01-25T20:21:33.913Z,101522.63
2023-01-25T20:24:04.557Z,101523.38
2023-01-25T20:26:33.952Z,101525.25
2023-01-25T20:29:02.065Z,101522.63
2023-01-25T20:31:33.922Z,101512.88
2023-01-25T20:34:05.964Z,101509.78
2023-01-25T20:36:36.309Z,101503.09
2023-01-25T20:39:04.101Z,101513.75
2023-01-25T20:41:30.994Z,101513.91
2023-01-25T20:44:07.203Z,101508.69
2023-01-25T20:46:37.585Z,101505.38
2023-01-25T20:49:15.100Z,101491.50
2023-01-25T20:51:45.197Z,101482.19
2023-01-25T20:54:12.149Z,101477.09
2023-01-25T20:56:39.244Z,101479.91
2023-01-25T20:59:06.233Z,101478.72
2023-01-25T21:01:47.162Z,101473.13
2023-01-25T21:07:03.056Z,101476.28
2023-01-25T21:09:30.075Z,101476.09
2023-01-25T21:11:57.035Z,101471.28
2023-01-25T21:14:23.914Z,101465.03
2023-01-25T21:16:50.906Z,101467.13
2023-01-25T21:19:17.872Z,101476.63
2023-01-25T21:21:44.845Z,101470.88
2023-01-25T21:24:12.069Z,101462.34
2023-01-25T21:26:39.056Z,101464.19
2023-01-25T21:29:06.800Z,101458.03
2023-01-25T21:31:43.061Z,101451.09
2023-01-25T21:34:10.609Z,101436.03
2023-01-25T21:36:37.592Z,101438.41
2023-01-25T21:39:04.281Z,101446.09
2023-01-25T21:41:33.652Z,101441.59
2023-01-25T21:44:19.592Z,101437.94
2023-01-25T21:47:12.435Z,101433.91
2023-01-25T21:49:51.569Z,101432.22
2023-01-25T21:52:18.327Z,101431.13
2023-01-25T21:54:45.114Z,101428.75
2023-01-25T21:57:11.778Z,101434.25
2023-01-25T21:59:40.916Z,101429.59
2023-01-25T22:02:11.727Z,101435.44
2023-01-25T22:04:38.637Z,101429.25
2023-01-25T22:07:07.103Z,101426.13
2023-01-25T22:09:33.738Z,101424.53
2023-01-25T22:12:01.889Z,101426.97
2023-01-25T22:14:28.834Z,101418.03
2023-01-25T22:16:58.477Z,101411.84
2023-01-25T22:19:25.303Z,101414.63
2023-01-25T22:21:52.191Z,101403.91
2023-01-25T22:24:19.311Z,101407.28
2023-01-25T22:26:49.055Z,101395.88
2023-01-25T22:29:16.152Z,101392.31
2023-01-25T22:31:43.212Z,101380.97
2023-01-25T22:34:10.501Z,101378.75
2023-01-25T22:36:38.103Z,101367.31
2023-01-25T22:39:04.835Z,101359.81
2023-01-25T22:41:32.530Z,101345.41
2023-01-25T22:43:59.206Z,101335.03
2023-01-25T22:46:27.909Z,101330.63
2023-01-25T22:48:55.301Z,101325.56
2023-01-25T22:51:25.516Z,101317.13
2023-01-25T22:53:53.098Z,101308.09
2023-01-25T22:56:25.499Z,101297.25
2023-01-25T22:58:52.682Z,101273.41
2023-01-25T23:01:21.829Z,101263.94
2023-01-25T23:03:49.237Z,101266.47
2023-01-25T23:06:18.903Z,101255.25
2023-01-25T23:08:46.412Z,101264.69
2023-01-25T23:11:15.814Z,101261.69
2023-01-25T23:14:02.836Z,101255.34
2023-01-25T23:16:29.940Z,101253.31
2023-01-25T23:18:56.588Z,101242.66
2023-01-25T23:21:28.121Z,101236.28
2023-01-25T23:23:55.925Z,101238.28
2023-01-25T23:26:23.298Z,101236.47
2023-01-25T23:28:51.205Z,101227.09
2023-01-25T23:31:18.362Z,101220.09
2023-01-25T23:33:49.920Z,101195.97
2023-01-25T23:36:19.412Z,101210.69
2023-01-25T23:38:46.706Z,101205.13
2023-01-25T23:41:14.114Z,101200.38
2023-01-25T23:43:41.262Z,101202.25
2023-01-25T23:46:08.258Z,101201.88
2023-01-25T23:48:35.507Z,101198.78
2023-01-25T23:51:02.640Z,101201.03
2023-01-25T23:53:30.889Z,101203.28
2023-01-25T23:55:59.737Z,101197.94
2023-01-25T23:58:26.856Z,101190.28
